createdAt,value
2018-09-01T00:01:51.537Z,4.97
2018-09-01T00:04:26.279Z,4.70
2018-09-01T00:07:01.148Z,4.60
2018-09-01T00:09:36.815Z,4.65
2018-09-01T00:12:11.589Z,4.83
2018-09-01T00:14:46.413Z,5.12
2018-09-01T00:17:26.289Z,4.80
2018-09-01T00:20:02.382Z,5.15
2018-09-01T00:22:37.421Z,4.97
2018-09-01T00:25:12.456Z,4.65
2018-09-01T00:27:47.450Z,5.17
2018-09-01T00:30:22.792Z,4.85
2018-09-01T00:32:57.865Z,5.87
2018-09-01T00:35:32.709Z,4.50
2018-09-01T00:38:12.576Z,4.92
2018-09-01T00:40:47.396Z,5.58
2018-09-01T00:43:22.257Z,5.05
2018-09-01T00:45:57.111Z,4.00
2018-09-01T00:48:32.085Z,4.22
2018-09-01T00:51:07.180Z,5.33
2018-09-01T00:53:41.865Z,4.80
2018-09-01T00:56:16.879Z,4.55
2018-09-01T00:58:51.680Z,4.60
2018-09-01T01:01:26.536Z,5.10
2018-09-01T01:04:01.604Z,5.97
2018-09-01T01:06:36.544Z,5.97
2018-09-01T01:09:11.858Z,6.10
2018-09-01T01:11:46.525Z,6.45
2018-09-01T01:14:21.298Z,6.55
2018-09-01T01:16:56.227Z,6.50
2018-09-01T01:19:31.437Z,6.67
2018-09-01T01:22:06.448Z,7.55
2018-09-01T01:24:41.560Z,6.70
2018-09-01T01:27:16.428Z,6.97
2018-09-01T01:29:51.152Z,6.72
2018-09-01T01:32:25.997Z,6.62
2018-09-01T01:35:02.715Z,7.00
2018-09-01T01:37:37.386Z,7.53
2018-09-01T01:40:12.057Z,6.60
2018-09-01T01:42:47.077Z,6.50
2018-09-01T01:45:22.228Z,5.92
2018-09-01T01:47:57.325Z,6.05
2018-09-01T01:50:32.141Z,6.12
2018-09-01T01:53:07.252Z,5.65
2018-09-01T01:55:42.149Z,6.80
2018-09-01T01:58:16.851Z,6.33
2018-09-01T02:00:51.948Z,5.65
2018-09-01T02:03:26.716Z,5.70
2018-09-01T02:06:01.590Z,6.03
2018-09-01T02:08:36.393Z,6.00
2018-09-01T02:11:11.416Z,6.12
2018-09-01T02:13:46.545Z,5.87
2018-09-01T02:16:21.457Z,5.47
2018-09-01T02:18:56.459Z,5.70
2018-09-01T02:21:31.250Z,5.45
2018-09-01T02:24:06.241Z,5.15
2018-09-01T02:26:41.028Z,6.50
2018-09-01T02:29:16.141Z,6.05
2018-09-01T02:31:50.766Z,6.00
2018-09-01T02:34:25.576Z,5.30
2018-09-01T02:37:00.313Z,6.50
2018-09-01T02:39:35.102Z,7.30
2018-09-01T02:42:10.081Z,5.70
2018-09-01T02:44:44.999Z,7.05
2018-09-01T02:47:19.920Z,6.75
2018-09-01T02:49:55.021Z,8.28
2018-09-01T02:52:29.888Z,8.10
2018-09-01T02:55:05.136Z,7.65
2018-09-01T02:57:40.025Z,8.43
2018-09-01T03:00:20.097Z,7.67
2018-09-01T03:02:54.892Z,8.33
2018-09-01T03:05:29.782Z,7.40
2018-09-01T03:08:05.080Z,7.65
2018-09-01T03:10:39.873Z,8.80
2018-09-01T03:13:14.894Z,7.45
2018-09-01T03:15:49.749Z,7.65
2018-09-01T03:18:24.628Z,7.72
2018-09-01T03:20:59.487Z,8.68
2018-09-01T03:23:34.341Z,9.68
2018-09-01T03:26:09.167Z,9.65
2018-09-01T03:28:44.148Z,9.93
2018-09-01T03:31:18.918Z,9.80
2018-09-01T03:33:54.054Z,10.35
2018-09-01T03:36:29.198Z,12.13
2018-09-01T03:39:05.464Z,15.03
2018-09-01T03:41:40.667Z,11.78
2018-09-01T03:44:15.449Z,9.63
2018-09-01T03:46:50.479Z,9.90
2018-09-01T03:49:25.503Z,9.88
2018-09-01T03:52:00.364Z,10.70
2018-09-01T03:54:35.122Z,8.83
2018-09-01T03:57:10.117Z,9.28
2018-09-01T03:59:44.943Z,9.40
2018-09-01T04:02:19.584Z,9.75
2018-09-01T04:04:54.530Z,10.35
2018-09-01T04:07:29.688Z,8.08
2018-09-01T04:10:04.508Z,8.93
2018-09-01T04:12:39.213Z,9.15
2018-09-01T04:15:14.381Z,8.25
2018-09-01T04:17:49.093Z,10.23
2018-09-01T04:20:23.924Z,11.48
2018-09-01T04:22:58.817Z,9.40
2018-09-01T04:25:33.483Z,11.05
2018-09-01T04:28:08.314Z,10.68
2018-09-01T04:30:43.374Z,10.63
2018-09-01T04:33:18.164Z,8.50
2018-09-01T04:35:52.805Z,9.58
2018-09-01T04:38:27.689Z,10.18
2018-09-01T04:41:02.665Z,9.10
2018-09-01T04:43:37.500Z,12.55
2018-09-01T04:46:12.490Z,11.88
2018-09-01T04:48:47.261Z,10.60
2018-09-01T04:51:22.253Z,10.15
2018-09-01T04:53:56.935Z,8.80
2018-09-01T04:56:31.794Z,11.33
2018-09-01T04:59:06.797Z,10.70
2018-09-01T05:01:41.833Z,9.53
2018-09-01T05:04:16.640Z,10.03
2018-09-01T05:06:51.447Z,11.53
2018-09-01T05:09:26.360Z,9.93
2018-09-01T05:12:01.217Z,10.30
2018-09-01T05:14:36.333Z,8.18
2018-09-01T05:17:11.132Z,8.43
2018-09-01T05:19:46.013Z,10.98
2018-09-01T05:22:20.640Z,8.28
2018-09-01T05:24:55.450Z,10.70
2018-09-01T05:27:30.513Z,9.70
2018-09-01T05:30:06.650Z,10.53
2018-09-01T05:32:41.521Z,10.10
2018-09-01T05:35:16.386Z,8.55
2018-09-01T05:37:51.297Z,9.43
2018-09-01T05:40:26.444Z,8.75
2018-09-01T05:43:01.301Z,8.20
2018-09-01T05:45:36.204Z,7.22
2018-09-01T05:48:11.076Z,7.75
2018-09-01T05:50:46.063Z,6.75
2018-09-01T05:53:20.738Z,7.33
2018-09-01T05:55:55.598Z,7.20
2018-09-01T05:58:30.385Z,7.75
2018-09-01T06:01:05.664Z,7.08
2018-09-01T06:03:40.481Z,7.25
2018-09-01T06:06:15.347Z,7.65
2018-09-01T06:08:50.500Z,6.42
2018-09-01T06:11:25.521Z,7.25
2018-09-01T06:14:00.608Z,6.30
2018-09-01T06:16:35.871Z,5.80
2018-09-01T06:19:10.937Z,5.58
2018-09-01T06:21:46.044Z,4.80
2018-09-01T06:24:20.754Z,4.58
2018-09-01T06:26:56.235Z,4.13
2018-09-01T06:29:31.545Z,3.83
2018-09-01T06:32:07.509Z,3.90
2018-09-01T06:34:42.510Z,3.70
2018-09-01T06:37:17.381Z,4.60
2018-09-01T06:39:52.110Z,5.20
2018-09-01T06:42:26.993Z,5.30
2018-09-01T06:45:01.669Z,6.42
2018-09-01T06:47:36.448Z,5.27
2018-09-01T06:50:11.381Z,6.00
2018-09-01T06:52:46.397Z,6.60
2018-09-01T06:55:21.185Z,6.45
2018-09-01T06:57:56.243Z,7.40
2018-09-01T07:00:31.257Z,6.83
2018-09-01T07:03:06.269Z,6.47
2018-09-01T07:05:41.212Z,6.47
2018-09-01T07:08:16.169Z,6.55
2018-09-01T07:10:51.225Z,6.85
2018-09-01T07:13:26.277Z,5.78
2018-09-01T07:16:01.380Z,6.30
2018-09-01T07:18:36.501Z,5.72
2018-09-01T07:21:11.474Z,5.45
2018-09-01T07:23:46.325Z,0.70
2018-09-01T07:26:21.070Z,0.60
2018-09-01T07:28:56.107Z,0.50
2018-09-01T07:31:31.422Z,0.53
2018-09-01T07:34:05.948Z,0.40
2018-09-01T07:36:40.717Z,0.40
2018-09-01T07:39:15.444Z,0.70
2018-09-01T07:41:50.227Z,0.40
2018-09-01T07:44:24.991Z,0.60
2018-09-01T07:46:59.907Z,0.60
2018-09-01T07:49:34.825Z,0.40
2018-09-01T07:52:09.501Z,0.50
2018-09-01T07:54:44.430Z,0.40
2018-09-01T07:57:19.140Z,0.50
2018-09-01T07:59:53.856Z,0.50
2018-09-01T08:02:28.671Z,1.10
2018-09-01T08:05:03.528Z,0.70
2018-09-01T08:07:38.578Z,0.40
2018-09-01T08:10:13.528Z,0.60
2018-09-01T08:12:48.293Z,0.50
2018-09-01T08:15:23.243Z,0.50
2018-09-01T08:17:58.320Z,1.33
2018-09-01T08:20:33.329Z,0.60
2018-09-01T08:23:08.288Z,4.50
2018-09-01T08:25:43.224Z,3.70
2018-09-01T08:28:18.055Z,4.27
2018-09-01T08:30:52.989Z,4.77
2018-09-01T08:33:27.907Z,4.43
2018-09-01T08:36:03.117Z,4.30
2018-09-01T08:38:38.253Z,5.10
2018-09-01T08:41:13.309Z,5.20
2018-09-01T08:43:48.151Z,5.33
2018-09-01T08:46:22.944Z,4.33
2018-09-01T08:48:57.644Z,4.50
2018-09-01T08:51:32.375Z,5.17
2018-09-01T08:54:07.390Z,4.67
2018-09-01T08:56:42.331Z,3.77
2018-09-01T08:59:17.428Z,4.20
2018-09-01T09:01:55.052Z,4.10
2018-09-01T09:04:29.825Z,3.60
2018-09-01T09:07:04.857Z,3.87
2018-09-01T09:09:39.957Z,3.17
2018-09-01T09:12:14.749Z,2.30
2018-09-01T09:14:49.889Z,2.77
2018-09-01T09:17:25.105Z,2.60
2018-09-01T09:20:00.069Z,3.10
2018-09-01T09:22:35.229Z,3.20
2018-09-01T09:25:10.462Z,3.30
2018-09-01T09:27:45.393Z,3.87
2018-09-01T09:30:20.539Z,3.37
2018-09-01T09:32:55.372Z,2.83
2018-09-01T09:35:30.293Z,3.07
2018-09-01T09:38:05.390Z,3.53
2018-09-01T09:40:40.305Z,4.80
2018-09-01T09:43:15.114Z,3.00
2018-09-01T09:45:49.958Z,2.87
2018-09-01T09:48:24.758Z,3.30
2018-09-01T09:50:59.942Z,2.97
2018-09-01T09:53:34.981Z,2.70
2018-09-01T09:56:10.153Z,2.30
2018-09-01T09:58:44.964Z,2.80
2018-09-01T10:01:25.390Z,2.40
2018-09-01T10:04:00.418Z,2.57
2018-09-01T10:06:36.081Z,3.13
2018-09-01T10:09:14.486Z,2.70
2018-09-01T10:11:49.238Z,2.50
2018-09-01T10:14:24.278Z,2.77
2018-09-01T10:16:59.653Z,2.40
2018-09-01T10:19:34.423Z,2.60
2018-09-01T10:22:09.269Z,2.93
2018-09-01T10:24:44.196Z,2.27
2018-09-01T10:27:18.985Z,2.43
2018-09-01T10:29:53.956Z,2.80
2018-09-01T10:32:28.676Z,2.50
2018-09-01T10:35:03.635Z,2.40
2018-09-01T10:37:38.301Z,1.90
2018-09-01T10:40:13.305Z,1.77
2018-09-01T10:42:48.296Z,2.07
2018-09-01T10:45:23.475Z,2.27
2018-09-01T10:47:58.521Z,2.10
2018-09-01T10:50:33.503Z,2.00
2018-09-01T10:53:08.355Z,2.17
2018-09-01T10:55:43.144Z,2.47
2018-09-01T10:58:17.841Z,1.90
2018-09-01T11:00:52.969Z,2.00
2018-09-01T11:03:27.856Z,2.50
2018-09-01T11:06:02.680Z,2.30
2018-09-01T11:08:37.797Z,2.03
2018-09-01T11:11:12.734Z,1.80
2018-09-01T11:13:47.373Z,1.80
2018-09-01T11:16:22.496Z,2.37
2018-09-01T11:18:57.518Z,1.57
2018-09-01T11:21:32.537Z,2.20
2018-09-01T11:24:07.543Z,2.00
2018-09-01T11:26:42.213Z,3.10
2018-09-01T11:29:17.293Z,2.17
2018-09-01T11:31:52.352Z,2.37
2018-09-01T11:34:27.144Z,2.70
2018-09-01T11:37:02.118Z,2.23
2018-09-01T11:39:37.091Z,2.20
2018-09-01T11:42:12.079Z,3.30
2018-09-01T11:44:47.311Z,2.30
2018-09-01T11:47:22.451Z,2.40
2018-09-01T11:49:57.436Z,2.10
2018-09-01T11:52:32.373Z,1.93
2018-09-01T11:55:07.882Z,2.20
2018-09-01T11:57:42.749Z,1.90
2018-09-01T12:00:18.077Z,2.40
2018-09-01T12:02:53.224Z,1.93
2018-09-01T12:05:28.360Z,2.20
2018-09-01T12:08:03.331Z,2.10
2018-09-01T12:10:38.409Z,1.90
2018-09-01T12:13:13.755Z,1.73
2018-09-01T12:15:48.970Z,2.00
2018-09-01T12:18:23.733Z,2.07
2018-09-01T12:20:58.845Z,1.80
2018-09-01T12:23:33.705Z,1.70
2018-09-01T12:26:08.725Z,2.10
2018-09-01T12:28:43.814Z,1.80
2018-09-01T12:31:18.641Z,2.17
2018-09-01T12:33:53.574Z,1.90
2018-09-01T12:36:28.837Z,1.80
2018-09-01T12:39:05.024Z,2.00
2018-09-01T12:41:39.622Z,2.20
2018-09-01T12:44:14.496Z,1.80
2018-09-01T12:46:50.663Z,2.20
2018-09-01T12:49:25.605Z,1.80
2018-09-01T12:52:00.361Z,2.00
2018-09-01T12:54:35.311Z,2.17
2018-09-01T12:57:10.212Z,2.17
2018-09-01T12:59:45.625Z,1.60
2018-09-01T13:02:22.002Z,2.10
2018-09-01T13:04:56.936Z,2.90
2018-09-01T13:07:31.697Z,2.03
2018-09-01T13:10:06.649Z,1.93
2018-09-01T13:12:41.917Z,1.73
2018-09-01T13:15:17.083Z,1.67
2018-09-01T13:17:51.939Z,1.80
2018-09-01T13:20:26.618Z,2.23
2018-09-01T13:23:01.537Z,2.47
2018-09-01T13:25:36.397Z,2.30
2018-09-01T13:28:11.434Z,2.20
2018-09-01T13:30:46.172Z,1.83
2018-09-01T13:33:21.097Z,2.00
2018-09-01T13:35:56.232Z,2.07
2018-09-01T13:38:31.024Z,2.57
2018-09-01T13:41:06.301Z,2.00
2018-09-01T13:43:41.205Z,2.27
2018-09-01T13:46:16.209Z,2.03
2018-09-01T13:48:51.141Z,3.53
2018-09-01T13:51:26.167Z,2.23
2018-09-01T13:54:01.302Z,2.47
2018-09-01T13:56:36.336Z,3.97
2018-09-01T13:59:11.251Z,2.73
2018-09-01T14:01:46.384Z,3.10
2018-09-01T14:04:21.201Z,3.00
2018-09-01T14:06:55.869Z,3.13
2018-09-01T14:09:30.601Z,3.20
2018-09-01T14:12:05.788Z,3.47
2018-09-01T14:14:40.734Z,4.20
2018-09-01T14:17:15.549Z,6.97
2018-09-01T14:19:50.475Z,4.13
2018-09-01T14:22:25.442Z,2.90
2018-09-01T14:25:00.335Z,3.27
2018-09-01T14:27:35.354Z,3.40
2018-09-01T14:30:10.233Z,3.20
2018-09-01T14:32:45.184Z,3.20
2018-09-01T14:35:20.132Z,3.20
2018-09-01T14:37:59.284Z,3.07
2018-09-01T14:40:34.227Z,2.80
2018-09-01T14:43:08.969Z,3.17
2018-09-01T14:45:43.908Z,2.67
2018-09-01T14:48:18.823Z,3.10
2018-09-01T14:50:53.492Z,3.03
2018-09-01T14:53:28.389Z,3.00
2018-09-01T14:56:03.201Z,2.87
2018-09-01T14:58:38.077Z,2.97
2018-09-01T15:01:12.708Z,2.40
2018-09-01T15:03:47.349Z,2.40
2018-09-01T15:06:22.170Z,3.33
2018-09-01T15:08:57.153Z,3.10
2018-09-01T15:11:32.193Z,2.97
2018-09-01T15:14:07.450Z,3.00
2018-09-01T15:16:42.714Z,3.10
2018-09-01T15:19:17.792Z,2.67
2018-09-01T15:21:52.423Z,4.00
2018-09-01T15:24:27.168Z,2.70
2018-09-01T15:27:02.023Z,2.87
2018-09-01T15:29:36.873Z,2.80
2018-09-01T15:32:11.773Z,2.93
2018-09-01T15:34:46.513Z,2.90
2018-09-01T15:37:21.457Z,2.13
2018-09-01T15:39:56.380Z,3.53
2018-09-01T15:42:31.238Z,2.50
2018-09-01T15:45:06.179Z,2.90
2018-09-01T15:47:41.172Z,2.57
2018-09-01T15:50:15.881Z,2.37
2018-09-01T15:52:50.773Z,2.90
2018-09-01T15:55:25.574Z,2.93
2018-09-01T15:58:00.419Z,3.10
2018-09-01T16:00:35.533Z,2.20
2018-09-01T16:03:10.389Z,2.90
2018-09-01T16:05:45.469Z,3.00
2018-09-01T16:08:20.610Z,2.33
2018-09-01T16:10:55.605Z,2.53
2018-09-01T16:13:30.481Z,2.63
2018-09-01T16:16:05.543Z,2.53
2018-09-01T16:18:40.480Z,2.40
2018-09-01T16:21:15.492Z,2.10
2018-09-01T16:23:50.289Z,2.37
2018-09-01T16:26:24.962Z,2.43
2018-09-01T16:28:59.933Z,2.17
2018-09-01T16:31:34.793Z,2.73
2018-09-01T16:34:09.708Z,2.40
2018-09-01T16:36:44.658Z,2.63
2018-09-01T16:39:19.537Z,2.27
2018-09-01T16:41:54.398Z,2.80
2018-09-01T16:44:29.508Z,2.73
2018-09-01T16:47:04.661Z,3.00
2018-09-01T16:49:39.577Z,2.23
2018-09-01T16:52:14.603Z,3.13
2018-09-01T16:54:49.557Z,2.53
2018-09-01T16:57:24.429Z,2.63
2018-09-01T16:59:59.593Z,2.50
2018-09-01T17:02:34.554Z,2.33
2018-09-01T17:05:09.344Z,2.80
2018-09-01T17:07:44.181Z,2.50
2018-09-01T17:10:19.288Z,2.43
2018-09-01T17:12:53.878Z,3.30
2018-09-01T17:15:28.675Z,2.70
2018-09-01T17:18:03.714Z,2.10
2018-09-01T17:20:38.592Z,2.23
2018-09-01T17:23:13.608Z,2.17
2018-09-01T17:25:48.481Z,2.23
2018-09-01T17:28:23.349Z,2.37
2018-09-01T17:30:58.512Z,2.60
2018-09-01T17:33:33.498Z,3.37
2018-09-01T17:36:08.892Z,2.90
2018-09-01T17:38:43.870Z,2.33
2018-09-01T17:41:18.963Z,2.37
2018-09-01T17:43:53.856Z,2.30
2018-09-01T17:46:28.744Z,2.57
2018-09-01T17:49:03.777Z,2.63
2018-09-01T17:51:38.564Z,2.53
2018-09-01T17:54:13.250Z,2.33
2018-09-01T17:56:48.396Z,2.50
2018-09-01T17:59:23.252Z,2.37
2018-09-01T18:01:58.116Z,2.90
2018-09-01T18:04:33.264Z,2.43
2018-09-01T18:07:08.281Z,2.62
2018-09-01T18:09:43.450Z,3.58
2018-09-01T18:12:18.408Z,3.00
2018-09-01T18:14:53.400Z,3.53
2018-09-01T18:17:28.520Z,2.70
2018-09-01T18:20:03.348Z,3.25
2018-09-01T18:22:38.348Z,2.77
2018-09-01T18:25:13.635Z,3.52
2018-09-01T18:27:48.406Z,5.00
2018-09-01T18:30:23.213Z,3.35
2018-09-01T18:32:58.186Z,3.40
2018-09-01T18:35:33.480Z,3.42
2018-09-01T18:38:08.525Z,2.85
2018-09-01T18:40:43.513Z,3.70
2018-09-01T18:43:18.348Z,3.65
2018-09-01T18:45:53.001Z,3.02
2018-09-01T18:48:28.000Z,3.62
2018-09-01T18:51:02.765Z,3.40
2018-09-01T18:53:37.739Z,3.52
2018-09-01T18:56:12.724Z,4.30
2018-09-01T18:58:47.718Z,4.35
2018-09-01T19:01:22.466Z,3.60
2018-09-01T19:03:57.336Z,3.85
2018-09-01T19:06:32.484Z,3.83
2018-09-01T19:09:07.995Z,4.00
2018-09-01T19:11:42.838Z,4.55
2018-09-01T19:14:17.961Z,4.17
2018-09-01T19:16:52.772Z,5.03
2018-09-01T19:19:27.704Z,4.20
2018-09-01T19:22:02.712Z,5.20
2018-09-01T19:24:37.663Z,4.62
2018-09-01T19:27:12.765Z,5.10
2018-09-01T19:29:47.392Z,5.15
2018-09-01T19:32:22.245Z,5.22
2018-09-01T19:34:56.934Z,4.70
2018-09-01T19:37:31.920Z,4.40
2018-09-01T19:40:07.997Z,4.40
2018-09-01T19:42:42.869Z,4.20
2018-09-01T19:45:17.978Z,4.45
2018-09-01T19:47:52.888Z,4.65
2018-09-01T19:50:27.725Z,4.10
2018-09-01T19:53:02.856Z,3.90
2018-09-01T19:55:37.996Z,4.50
2018-09-01T19:58:12.929Z,4.72
2018-09-01T20:00:48.033Z,4.60
2018-09-01T20:03:22.744Z,3.80
2018-09-01T20:05:57.768Z,4.70
2018-09-01T20:08:32.968Z,4.40
2018-09-01T20:11:08.753Z,5.00
2018-09-01T20:13:43.616Z,4.45
2018-09-01T20:16:18.396Z,4.55
2018-09-01T20:18:53.411Z,4.15
2018-09-01T20:21:28.556Z,6.03
2018-09-01T20:24:04.010Z,5.83
2018-09-01T20:26:39.285Z,4.80
2018-09-01T20:29:14.153Z,4.67
2018-09-01T20:31:48.805Z,4.10
2018-09-01T20:34:23.696Z,4.70
2018-09-01T20:36:58.566Z,4.97
2018-09-01T20:39:33.365Z,5.28
2018-09-01T20:42:08.249Z,4.37
2018-09-01T20:44:43.161Z,4.85
2018-09-01T20:47:17.941Z,4.58
2018-09-01T20:49:53.189Z,5.60
2018-09-01T20:52:28.069Z,5.17
2018-09-01T20:55:03.066Z,4.42
2018-09-01T20:57:38.052Z,5.20
2018-09-01T21:00:13.004Z,5.25
2018-09-01T21:02:47.820Z,4.78
2018-09-01T21:05:22.647Z,4.92
2018-09-01T21:07:57.742Z,4.90
2018-09-01T21:10:32.526Z,4.12
2018-09-01T21:13:07.421Z,4.85
2018-09-01T21:15:42.296Z,5.45
2018-09-01T21:18:17.264Z,5.00
2018-09-01T21:20:52.043Z,5.30
2018-09-01T21:23:26.909Z,5.95
2018-09-01T21:26:01.929Z,7.10
2018-09-01T21:28:36.530Z,5.72
2018-09-01T21:31:11.520Z,6.10
2018-09-01T21:33:46.579Z,6.20
2018-09-01T21:36:21.752Z,7.15
2018-09-01T21:38:56.584Z,6.80
2018-09-01T21:41:31.824Z,6.87
2018-09-01T21:44:06.724Z,6.45
2018-09-01T21:46:41.664Z,6.40
2018-09-01T21:49:16.707Z,7.40
2018-09-01T21:51:51.436Z,6.37
2018-09-01T21:54:26.108Z,5.87
2018-09-01T21:57:00.868Z,6.22
2018-09-01T21:59:35.885Z,6.15
2018-09-01T22:02:25.760Z,6.08
2018-09-01T22:05:05.989Z,6.25
2018-09-01T22:07:40.901Z,6.70
2018-09-01T22:10:15.553Z,6.20
2018-09-01T22:12:50.713Z,5.72
2018-09-01T22:15:25.610Z,6.92
2018-09-01T22:18:00.453Z,9.18
2018-09-01T22:20:35.313Z,7.12
2018-09-01T22:23:10.073Z,7.42
2018-09-01T22:25:44.920Z,6.40
2018-09-01T22:28:19.896Z,6.72
2018-09-01T22:30:54.868Z,8.25
2018-09-01T22:33:29.909Z,6.95
2018-09-01T22:36:05.042Z,7.87
2018-09-01T22:38:39.815Z,7.00
2018-09-01T22:41:14.832Z,8.25
2018-09-01T22:43:49.458Z,9.90
2018-09-01T22:46:24.528Z,13.18
2018-09-01T22:48:59.336Z,11.28
2018-09-01T22:51:34.336Z,10.82
2018-09-01T22:54:09.061Z,11.55
2018-09-01T22:56:43.896Z,10.65
2018-09-01T22:59:18.657Z,9.20
2018-09-01T23:01:53.398Z,9.55
2018-09-01T23:04:28.401Z,10.82
2018-09-01T23:07:03.398Z,11.00
2018-09-01T23:09:38.208Z,11.03
2018-09-01T23:12:13.052Z,10.30
2018-09-01T23:14:47.776Z,10.65
2018-09-01T23:17:22.652Z,9.85
2018-09-01T23:19:57.549Z,9.70
2018-09-01T23:22:32.661Z,9.95
2018-09-01T23:25:07.512Z,10.35
2018-09-01T23:27:42.335Z,11.08
2018-09-01T23:30:17.197Z,10.20
2018-09-01T23:32:51.914Z,11.15
2018-09-01T23:35:26.818Z,12.43
2018-09-01T23:38:01.745Z,10.45
2018-09-01T23:40:36.790Z,10.65
2018-09-01T23:43:11.796Z,11.53
2018-09-01T23:45:46.764Z,11.60
2018-09-01T23:48:21.611Z,11.90
2018-09-01T23:50:56.605Z,10.68
2018-09-01T23:53:31.493Z,11.00
2018-09-01T23:56:06.509Z,12.30
2018-09-01T23:58:41.321Z,11.55
